Time;durP1;ratioP1;P1;durP2;ratioP2;P2;SDS_P1;SDS_P2;PMS_P1;PMS_P2;Temp;Humidity;BMP_temperature;BMP_pressure;BME280_temperature;BME280_humidity;BME280_pressure;Samples;Min_cycle;Max_cycle;Signal;HPM_P1;HPM_P2
2021/03/23 00:01:26;;;;;;;10.33;5.00;;;3.30;99.90;;;;;;5014761;28;20588;-69
2021/03/23 00:03:52;;;;;;;8.20;5.50;;;3.30;99.90;;;;;;5015876;28;20455;-68
2021/03/23 00:06:27;;;;;;;10.73;5.53;;;3.30;99.90;;;;;;5014173;28;20466;-69
2021/03/23 00:08:58;;;;;;;12.43;5.27;;;3.30;99.90;;;;;;5013571;28;20626;-68
2021/03/23 00:11:28;;;;;;;12.53;6.53;;;3.20;99.90;;;;;;5014594;28;20456;-68
2021/03/23 00:13:55;;;;;;;13.03;5.50;;;3.20;99.90;;;;;;5015069;28;20450;-68
2021/03/23 00:16:25;;;;;;;10.07;5.63;;;3.20;99.90;;;;;;5014356;28;20448;-68
2021/03/23 00:18:51;;;;;;;11.50;5.33;;;3.10;99.90;;;;;;5015195;28;20629;-68
2021/03/23 00:21:17;;;;;;;8.73;4.20;;;3.10;99.90;;;;;;5014009;28;20475;-68
2021/03/23 00:23:43;;;;;;;8.40;5.77;;;3.10;99.90;;;;;;5015600;28;20214;-69
2021/03/23 00:26:10;;;;;;;10.60;7.17;;;3.10;99.90;;;;;;5013332;28;20521;-69
2021/03/23 00:28:37;;;;;;;13.30;7.50;;;3.10;99.90;;;;;;5015050;28;20402;-69
2021/03/23 00:31:03;;;;;;;8.60;6.27;;;3.00;99.90;;;;;;5013958;28;20445;-69
2021/03/23 00:33:29;;;;;;;7.97;4.60;;;3.00;99.90;;;;;;5015183;28;20517;-69
2021/03/23 00:36:00;;;;;;;10.40;5.80;;;3.00;99.90;;;;;;5013814;28;20489;-68
2021/03/23 00:38:28;;;;;;;14.90;5.90;;;2.90;99.90;;;;;;5015243;28;20193;-68
2021/03/23 00:40:54;;;;;;;6.40;4.57;;;2.80;99.90;;;;;;5014351;28;20432;-69
2021/03/23 00:43:20;;;;;;;8.70;5.50;;;2.80;99.90;;;;;;5014744;28;20505;-69
2021/03/23 00:45:46;;;;;;;11.83;5.27;;;2.80;99.90;;;;;;5013719;28;20430;-68
2021/03/23 00:48:14;;;;;;;18.03;6.40;;;2.70;99.90;;;;;;5014712;28;20509;-69
2021/03/23 00:50:41;;;;;;;7.60;5.60;;;2.80;99.90;;;;;;5012539;28;20559;-69
2021/03/23 00:53:07;;;;;;;13.43;5.33;;;2.80;99.90;;;;;;5014457;28;20488;-68
2021/03/23 00:55:33;;;;;;;10.47;5.57;;;2.80;99.90;;;;;;5013823;28;20777;-68
2021/03/23 00:57:59;;;;;;;11.30;5.70;;;2.80;99.90;;;;;;5013505;28;20490;-69
2021/03/23 01:00:25;;;;;;;6.50;5.33;;;2.90;99.90;;;;;;5013162;28;20177;-68
2021/03/23 01:02:51;;;;;;;9.27;5.10;;;2.90;99.90;;;;;;5014236;28;20182;-69
2021/03/23 01:05:20;;;;;;;8.40;5.23;;;3.00;99.90;;;;;;5014261;28;20414;-69
2021/03/23 01:07:46;;;;;;;10.43;6.50;;;3.00;99.90;;;;;;5014706;28;20565;-70
2021/03/23 01:10:14;;;;;;;15.13;6.00;;;3.10;99.90;;;;;;5013113;28;20445;-68
2021/03/23 01:12:40;;;;;;;7.83;5.30;;;3.10;99.90;;;;;;5013254;28;20438;-68
2021/03/23 01:15:10;;;;;;;8.60;6.27;;;3.10;99.90;;;;;;5013982;28;20486;-69
2021/03/23 01:17:36;;;;;;;9.30;5.60;;;3.20;99.90;;;;;;5013077;28;20420;-69
2021/03/23 01:20:07;;;;;;;8.93;5.00;;;3.20;99.90;;;;;;5013387;28;20425;-69
2021/03/23 01:22:33;;;;;;;18.93;6.40;;;3.20;99.90;;;;;;5012829;28;20652;-69
2021/03/23 01:24:59;;;;;;;11.83;5.40;;;3.20;99.90;;;;;;5013110;28;20450;-69
2021/03/23 01:27:24;;;;;;;9.73;5.77;;;3.20;99.90;;;;;;5012534;28;20180;-69
2021/03/23 01:29:50;;;;;;;16.07;6.20;;;3.20;99.90;;;;;;5013985;28;20286;-68
2021/03/23 01:32:16;;;;;;;8.47;5.63;;;3.20;99.90;;;;;;5012745;28;20203;-69
2021/03/23 01:34:43;;;;;;;12.33;5.87;;;3.20;99.90;;;;;;5013674;28;20215;-68
2021/03/23 01:37:09;;;;;;;9.70;5.67;;;3.20;99.90;;;;;;5011524;28;20177;-68
2021/03/23 01:39:35;;;;;;;14.60;6.90;;;3.20;99.90;;;;;;5013990;28;20980;-69
2021/03/23 01:42:00;;;;;;;10.00;6.20;;;3.20;99.90;;;;;;5013033;28;20283;-69
2021/03/23 01:44:26;;;;;;;14.67;6.93;;;3.20;99.90;;;;;;5013643;28;20611;-69
2021/03/23 01:46:52;;;;;;;12.07;6.87;;;3.20;99.90;;;;;;5012810;28;20188;-69
2021/03/23 01:49:24;;;;;;;11.73;6.63;;;3.20;99.90;;;;;;5013884;28;20206;-69
2021/03/23 01:51:53;;;;;;;12.60;7.20;;;3.20;99.90;;;;;;5012759;28;20695;-68
2021/03/23 01:54:22;;;;;;;9.53;6.00;;;3.10;99.90;;;;;;5013640;28;20500;-69
2021/03/23 01:56:51;;;;;;;14.23;7.37;;;3.10;99.90;;;;;;5012643;28;20457;-69
2021/03/23 01:59:19;;;;;;;25.23;7.13;;;3.10;99.90;;;;;;5013451;28;20926;-69
2021/03/23 02:01:46;;;;;;;11.53;7.13;;;3.10;99.90;;;;;;5012593;28;20426;-69
2021/03/23 02:04:12;;;;;;;12.93;7.13;;;3.10;99.90;;;;;;5013514;28;20428;-69
2021/03/23 02:06:49;;;;;;;14.47;7.30;;;3.10;99.90;;;;;;5011099;28;20897;-69
2021/03/23 02:09:23;;;;;;;15.10;7.80;;;3.00;99.90;;;;;;5013656;28;20416;-69
2021/03/23 02:11:55;;;;;;;10.40;6.20;;;2.90;99.90;;;;;;5012724;28;20424;-69
2021/03/23 02:14:25;;;;;;;11.33;6.93;;;2.80;99.90;;;;;;5013287;28;20466;-68
2021/03/23 02:16:52;;;;;;;16.90;8.50;;;2.80;99.90;;;;;;5012506;28;20418;-68
2021/03/23 02:19:22;;;;;;;14.47;7.80;;;2.70;99.90;;;;;;5007301;28;20964;-68
2021/03/23 02:21:48;;;;;;;21.97;7.10;;;2.70;99.90;;;;;;5012545;28;20801;-68
2021/03/23 02:24:15;;;;;;;12.70;7.90;;;2.70;99.90;;;;;;5013278;28;20433;-68
2021/03/23 02:26:41;;;;;;;19.63;6.90;;;2.70;99.90;;;;;;5012495;28;20784;-69
2021/03/23 02:29:16;;;;;;;23.83;6.30;;;2.70;99.90;;;;;;5013422;28;20415;-68
2021/03/23 02:31:46;;;;;;;11.80;7.20;;;2.70;99.90;;;;;;5013444;28;20168;-69
2021/03/23 02:34:16;;;;;;;12.83;7.77;;;2.70;99.90;;;;;;5017625;28;20415;-69
2021/03/23 02:36:44;;;;;;;19.53;7.90;;;2.70;99.90;;;;;;5016281;28;20415;-69
2021/03/23 02:39:12;;;;;;;12.70;7.70;;;2.70;99.90;;;;;;5017424;28;20426;-69
2021/03/23 02:41:38;;;;;;;19.20;7.33;;;2.70;99.90;;;;;;5016482;28;20479;-69
2021/03/23 02:44:05;;;;;;;11.90;6.70;;;2.60;99.90;;;;;;5017192;28;20851;-68
2021/03/23 02:46:31;;;;;;;12.43;8.17;;;2.60;99.90;;;;;;5015926;28;20410;-69
2021/03/23 02:48:57;;;;;;;11.40;7.77;;;2.60;99.90;;;;;;5016840;28;20404;-69
2021/03/23 02:51:22;;;;;;;19.93;8.70;;;2.50;99.90;;;;;;5016070;28;20505;-69
2021/03/23 02:53:49;;;;;;;17.50;8.20;;;2.50;99.90;;;;;;5016605;28;20279;-69
2021/03/23 02:56:15;;;;;;;13.37;6.97;;;2.50;99.90;;;;;;5017118;28;20199;-68
2021/03/23 02:58:41;;;;;;;14.73;8.00;;;2.40;99.90;;;;;;5016031;28;20467;-68
2021/03/23 03:01:08;;;;;;;13.23;6.83;;;2.40;99.90;;;;;;5016755;28;20402;-68
2021/03/23 03:03:33;;;;;;;13.03;7.53;;;2.40;99.90;;;;;;5014777;28;20544;-69
2021/03/23 03:05:59;;;;;;;12.00;7.50;;;2.30;99.90;;;;;;5017203;28;20558;-69
2021/03/23 03:08:26;;;;;;;18.90;8.37;;;2.30;99.90;;;;;;5015653;28;20191;-69
2021/03/23 03:10:52;;;;;;;19.33;8.90;;;2.30;99.90;;;;;;5016656;28;20193;-69
2021/03/23 03:13:21;;;;;;;14.13;8.03;;;2.40;99.90;;;;;;5015529;28;20531;-69
2021/03/23 03:15:48;;;;;;;16.10;8.87;;;2.30;99.90;;;;;;5016456;28;20387;-68
2021/03/23 03:18:14;;;;;;;15.50;8.50;;;2.30;99.90;;;;;;5015108;28;20439;-69
2021/03/23 03:20:40;;;;;;;12.80;7.67;;;2.30;99.90;;;;;;5016464;28;20412;-68
2021/03/23 03:23:06;;;;;;;16.50;8.40;;;2.40;99.90;;;;;;5015293;28;20684;-68
2021/03/23 03:25:32;;;;;;;14.43;7.90;;;2.40;99.90;;;;;;5016331;28;20173;-68
2021/03/23 03:27:58;;;;;;;13.87;8.40;;;2.40;99.90;;;;;;5014246;28;20423;-69
2021/03/23 03:30:27;;;;;;;11.47;6.23;;;2.40;99.90;;;;;;5016200;28;20498;-69
2021/03/23 03:32:54;;;;;;;18.30;8.30;;;2.40;99.90;;;;;;5015200;28;20698;-70
2021/03/23 03:35:23;;;;;;;18.20;7.53;;;2.40;99.90;;;;;;5016019;28;20399;-69
2021/03/23 03:37:49;;;;;;;14.00;8.23;;;2.40;99.90;;;;;;5015281;28;20544;-69
2021/03/23 03:40:31;;;;;;;16.03;8.53;;;2.50;99.90;;;;;;5016134;28;20436;-69
2021/03/23 03:42:57;;;;;;;14.17;7.77;;;2.40;99.90;;;;;;5014098;28;20587;-68
2021/03/23 03:45:25;;;;;;;29.23;8.37;;;2.50;99.90;;;;;;5015834;28;20402;-69
2021/03/23 03:47:55;;;;;;;17.03;8.93;;;2.50;99.90;;;;;;5013909;28;20439;-69
2021/03/23 03:50:23;;;;;;;14.73;8.90;;;2.50;99.90;;;;;;5014653;28;20962;-72
2021/03/23 03:52:48;;;;;;;16.30;7.70;;;2.50;99.90;;;;;;5014571;28;20514;-68
2021/03/23 03:55:19;;;;;;;14.13;8.63;;;2.60;99.90;;;;;;5014042;28;20914;-70
2021/03/23 03:57:44;;;;;;;14.43;7.90;;;2.60;99.90;;;;;;5007259;28;20211;-69
2021/03/23 04:00:11;;;;;;;15.70;7.50;;;2.60;99.90;;;;;;4995906;28;20407;-69
2021/03/23 04:02:37;;;;;;;14.27;7.60;;;2.60;99.90;;;;;;5002566;28;20173;-68
2021/03/23 04:05:05;;;;;;;15.43;7.53;;;2.60;99.90;;;;;;5015423;28;20437;-68
2021/03/23 04:07:31;;;;;;;12.60;7.40;;;2.60;99.90;;;;;;5014277;28;20191;-68
2021/03/23 04:09:57;;;;;;;13.40;7.50;;;2.60;99.90;;;;;;5015544;28;20546;-68
2021/03/23 04:12:23;;;;;;;12.33;7.27;;;2.60;99.90;;;;;;5014656;28;20514;-69
2021/03/23 04:14:49;;;;;;;15.73;8.50;;;2.60;99.90;;;;;;5015185;28;20780;-69
2021/03/23 04:17:15;;;;;;;15.70;9.07;;;2.50;99.90;;;;;;5014587;28;20173;-69
2021/03/23 04:19:40;;;;;;;16.10;8.43;;;2.50;99.90;;;;;;5015428;28;20942;-69
2021/03/23 04:22:06;;;;;;;15.57;8.23;;;2.50;99.90;;;;;;5013330;28;20708;-68
2021/03/23 04:24:32;;;;;;;17.47;8.40;;;2.50;99.90;;;;;;5015138;28;20190;-69
2021/03/23 04:26:59;;;;;;;13.17;7.70;;;2.50;99.90;;;;;;5014373;28;20229;-68
2021/03/23 04:29:25;;;;;;;15.87;9.23;;;2.50;99.90;;;;;;4995363;28;20413;-69
2021/03/23 04:31:51;;;;;;;14.33;6.90;;;2.50;99.90;;;;;;4996132;28;20838;-69
2021/03/23 04:34:17;;;;;;;16.50;7.27;;;2.50;99.90;;;;;;5011359;28;20485;-68
2021/03/23 04:36:44;;;;;;;16.53;7.87;;;2.50;99.90;;;;;;5004824;28;20183;-68
2021/03/23 04:39:12;;;;;;;14.47;8.27;;;2.50;99.90;;;;;;5014121;28;20837;-68
2021/03/23 04:41:39;;;;;;;18.03;9.00;;;2.50;99.90;;;;;;5015513;28;20462;-68
2021/03/23 04:44:06;;;;;;;12.90;7.60;;;2.50;99.90;;;;;;5014130;28;20840;-68
2021/03/23 04:46:32;;;;;;;15.33;7.93;;;2.50;99.90;;;;;;5015016;28;20495;-68
2021/03/23 04:48:59;;;;;;;13.20;8.23;;;2.50;99.90;;;;;;5014140;28;20484;-68
2021/03/23 04:51:27;;;;;;;19.60;9.70;;;2.50;99.90;;;;;;5015047;28;20443;-68
2021/03/23 04:54:08;;;;;;;17.33;8.80;;;2.50;99.90;;;;;;5014646;28;20490;-68
2021/03/23 04:56:36;;;;;;;12.90;7.57;;;2.50;99.90;;;;;;5015218;28;20447;-68
2021/03/23 04:59:03;;;;;;;14.93;8.70;;;2.50;99.90;;;;;;5013609;28;20474;-68
2021/03/23 05:01:29;;;;;;;13.50;8.13;;;2.60;99.90;;;;;;5013615;28;20521;-68
2021/03/23 05:03:57;;;;;;;15.37;8.50;;;2.60;99.90;;;;;;5013755;28;20495;-68
2021/03/23 05:06:24;;;;;;;15.93;8.60;;;2.60;99.90;;;;;;5014418;28;20404;-68
2021/03/23 05:08:50;;;;;;;16.20;8.83;;;2.70;99.90;;;;;;5012636;28;20434;-68
2021/03/23 05:11:18;;;;;;;16.70;8.63;;;2.70;99.90;;;;;;5014257;28;20546;-68
2021/03/23 05:13:44;;;;;;;14.20;7.67;;;2.70;99.90;;;;;;5013708;28;20546;-68
2021/03/23 05:16:10;;;;;;;15.10;8.07;;;2.70;99.90;;;;;;5014206;28;20908;-69
2021/03/23 05:18:36;;;;;;;18.10;8.97;;;2.70;99.90;;;;;;5013349;28;20178;-69
2021/03/23 05:21:02;;;;;;;13.90;8.20;;;2.80;99.90;;;;;;5014166;28;20408;-69
2021/03/23 05:23:28;;;;;;;17.13;8.43;;;2.80;99.90;;;;;;5013357;28;20545;-69
2021/03/23 05:25:54;;;;;;;16.97;9.23;;;2.80;99.90;;;;;;5014076;28;20415;-69
2021/03/23 05:28:20;;;;;;;19.67;10.93;;;2.90;99.90;;;;;;5013243;28;20211;-69
2021/03/23 05:30:46;;;;;;;17.17;8.93;;;2.80;99.90;;;;;;5013982;28;20194;-69
2021/03/23 05:33:13;;;;;;;16.60;8.97;;;2.70;99.90;;;;;;5012168;28;20458;-69
2021/03/23 05:35:39;;;;;;;12.67;8.40;;;2.60;99.90;;;;;;5013876;28;20411;-68
2021/03/23 05:38:05;;;;;;;19.47;9.63;;;2.60;99.90;;;;;;5013231;28;20437;-68
2021/03/23 05:40:36;;;;;;;17.50;9.33;;;2.50;99.90;;;;;;5013979;28;20399;-69
2021/03/23 05:43:22;;;;;;;16.13;9.23;;;2.50;99.90;;;;;;5013141;28;20431;-69
2021/03/23 05:45:57;;;;;;;17.80;10.50;;;2.40;99.90;;;;;;5013845;28;20404;-69
2021/03/23 05:48:29;;;;;;;21.50;10.30;;;2.30;99.90;;;;;;5012786;28;20436;-69
2021/03/23 05:51:03;;;;;;;21.43;10.03;;;2.30;99.90;;;;;;5013676;28;20856;-69
2021/03/23 05:53:43;;;;;;;18.83;8.83;;;2.30;99.90;;;;;;5013275;28;20539;-69
2021/03/23 05:56:11;;;;;;;17.13;10.23;;;2.30;99.90;;;;;;5013713;28;20395;-69
2021/03/23 05:58:40;;;;;;;18.87;9.60;;;2.40;99.90;;;;;;5012849;28;20789;-69
2021/03/23 06:01:19;;;;;;;15.03;8.53;;;2.50;99.90;;;;;;5013582;28;20401;-69
2021/03/23 06:04:01;;;;;;;16.77;9.60;;;2.50;99.90;;;;;;5012629;28;20976;-68
2021/03/23 06:06:56;;;;;;;19.37;10.30;;;2.50;99.90;;;;;;5011991;28;20481;-69
2021/03/23 06:09:28;;;;;;;23.33;12.00;;;2.60;99.90;;;;;;5008865;28;20541;-69
2021/03/23 06:12:46;;;;;;;21.67;11.53;;;2.60;99.90;;;;;;5013763;28;20759;-69
2021/03/23 06:15:24;;;;;;;21.50;10.00;;;2.60;99.90;;;;;;4940754;28;20454;-69
2021/03/23 06:18:05;;;;;;;18.30;9.57;;;2.60;99.90;;;;;;4996376;28;20529;-68
2021/03/23 06:20:37;;;;;;;23.67;11.67;;;2.60;99.90;;;;;;5013386;28;20391;-69
2021/03/23 06:23:39;;;;;;;19.20;11.30;;;2.70;99.90;;;;;;5012552;28;20537;-69
2021/03/23 06:26:05;;;;;;;18.40;9.47;;;2.90;99.90;;;;;;5013503;28;20787;-68
2021/03/23 06:28:55;;;;;;;20.50;9.83;;;3.00;99.90;;;;;;5012449;28;20446;-68
2021/03/23 06:31:39;;;;;;;19.53;10.30;;;3.10;99.90;;;;;;5013517;28;20192;-69
2021/03/23 06:34:42;;;;;;;21.03;11.10;;;3.10;99.90;;;;;;5011863;28;20446;-68
2021/03/23 06:37:40;;;;;;;17.87;8.80;;;3.10;99.90;;;;;;5004925;28;20424;-69
2021/03/23 06:40:30;;;;;;;21.20;11.07;;;3.10;99.90;;;;;;5013268;28;20458;-69
2021/03/23 06:43:13;;;;;;;22.00;12.87;;;3.20;99.90;;;;;;5012388;28;20448;-68
2021/03/23 06:45:39;;;;;;;21.10;10.93;;;3.30;99.90;;;;;;5013448;28;20395;-69
2021/03/23 06:48:37;;;;;;;16.67;10.00;;;3.30;99.90;;;;;;5012201;28;20521;-69
2021/03/23 06:51:08;;;;;;;19.83;9.47;;;3.30;99.90;;;;;;4980240;28;20226;-69
2021/03/23 06:53:34;;;;;;;17.63;9.30;;;3.30;99.90;;;;;;5012341;28;20552;-69
2021/03/23 06:56:22;;;;;;;22.27;11.63;;;3.30;99.90;;;;;;5012488;28;20773;-69
2021/03/23 06:59:15;;;;;;;25.00;10.90;;;3.40;99.90;;;;;;5011304;28;20510;-69
2021/03/23 07:01:46;;;;;;;21.17;10.67;;;3.40;99.90;;;;;;5013202;28;20388;-68
2021/03/23 07:04:35;;;;;;;23.90;10.77;;;3.50;99.90;;;;;;5012105;28;20460;-69
2021/03/23 07:07:06;;;;;;;21.10;10.10;;;3.60;99.90;;;;;;5013410;28;20757;-68
2021/03/23 07:09:32;;;;;;;23.40;11.40;;;3.70;99.90;;;;;;5013023;28;20797;-68
2021/03/23 07:12:03;;;;;;;24.07;11.10;;;3.90;99.90;;;;;;5012033;28;20492;-68
2021/03/23 07:14:33;;;;;;;18.80;9.47;;;4.10;99.90;;;;;;5011909;28;20477;-68
2021/03/23 07:17:05;;;;;;;27.10;11.20;;;4.20;99.90;;;;;;5012952;28;20626;-68
2021/03/23 07:19:31;;;;;;;22.83;11.43;;;4.20;99.90;;;;;;5015782;28;20441;-69
2021/03/23 07:22:05;;;;;;;19.83;11.70;;;4.20;99.90;;;;;;5016486;28;20429;-69
2021/03/23 07:24:32;;;;;;;23.00;10.70;;;4.30;99.90;;;;;;5015669;28;20458;-70
2021/03/23 07:27:07;;;;;;;19.97;11.57;;;4.20;99.90;;;;;;5016698;28;20489;-68
2021/03/23 07:29:38;;;;;;;24.37;11.80;;;4.20;99.90;;;;;;5015658;28;20424;-68
2021/03/23 07:32:34;;;;;;;23.80;12.03;;;4.20;99.90;;;;;;5016626;28;20418;-68
2021/03/23 07:35:21;;;;;;;19.97;9.90;;;4.30;99.90;;;;;;5015451;28;20456;-69
2021/03/23 07:37:57;;;;;;;19.10;10.17;;;4.40;99.90;;;;;;5016411;28;20392;-70
2021/03/23 07:40:45;;;;;;;25.43;12.80;;;4.60;99.90;;;;;;4996732;28;20395;-69
2021/03/23 07:43:17;;;;;;;19.23;10.50;;;4.80;99.90;;;;;;4998134;28;20781;-68
2021/03/23 07:46:04;;;;;;;20.80;10.83;;;4.80;99.90;;;;;;5015163;28;20994;-69
2021/03/23 07:48:48;;;;;;;27.57;11.87;;;5.00;99.90;;;;;;5014985;28;20839;-69
2021/03/23 07:51:26;;;;;;;21.30;11.33;;;5.20;99.90;;;;;;5016109;28;20473;-69
2021/03/23 07:53:52;;;;;;;27.33;11.27;;;5.40;99.90;;;;;;5014779;28;20502;-69
2021/03/23 07:56:52;;;;;;;23.70;10.60;;;5.40;99.90;;;;;;5016318;28;20397;-69
2021/03/23 07:59:50;;;;;;;21.23;9.90;;;5.40;99.90;;;;;;5014389;28;20787;-69
2021/03/23 08:02:26;;;;;;;17.10;10.03;;;5.40;99.90;;;;;;5012611;28;20420;-70
2021/03/23 08:04:56;;;;;;;23.90;11.80;;;5.30;99.90;;;;;;5006549;28;20440;-69
2021/03/23 08:07:47;;;;;;;20.27;10.17;;;5.30;99.90;;;;;;5009790;28;20424;-68
2021/03/23 08:10:27;;;;;;;23.13;11.03;;;5.40;99.90;;;;;;5011119;28;20519;-70
2021/03/23 08:12:57;;;;;;;23.30;10.57;;;5.70;99.90;;;;;;5015896;28;20420;-72
2021/03/23 08:16:14;;;;;;;22.63;9.07;;;6.00;99.90;;;;;;5015517;28;20429;-73
2021/03/23 08:19:14;;;;;;;15.17;9.13;;;6.50;99.90;;;;;;4975344;28;20437;-71
2021/03/23 08:21:58;;;;;;;21.83;12.50;;;6.90;99.90;;;;;;4968874;28;20422;-71
2021/03/23 08:24:40;;;;;;;17.37;9.30;;;7.10;99.90;;;;;;5008413;28;20483;-71
2021/03/23 08:27:35;;;;;;;18.20;9.30;;;6.90;99.90;;;;;;5011995;28;21009;-71
2021/03/23 08:30:12;;;;;;;26.23;10.20;;;6.90;99.90;;;;;;5010314;28;20453;-71
2021/03/23 08:32:46;;;;;;;14.03;7.83;;;6.80;99.90;;;;;;5011076;28;20484;-71
2021/03/23 08:35:24;;;;;;;22.03;10.57;;;6.70;99.90;;;;;;5012655;28;20429;-71
2021/03/23 08:38:10;;;;;;;18.13;9.90;;;6.60;99.90;;;;;;5005350;28;20401;-70
2021/03/23 08:40:45;;;;;;;20.63;10.10;;;6.50;99.90;;;;;;5008155;28;20478;-70
2021/03/23 08:43:15;;;;;;;15.50;9.17;;;6.60;99.90;;;;;;5014555;28;20449;-70
2021/03/23 08:45:53;;;;;;;19.97;11.20;;;6.70;99.90;;;;;;5015187;28;20780;-70
2021/03/23 08:48:27;;;;;;;23.40;10.70;;;;;;;;;;5013962;28;20421;-70
2021/03/23 08:50:58;;;;;;;16.60;8.10;;;;;;;;;;5009904;28;20453;-71
2021/03/23 08:53:34;;;;;;;17.13;8.17;;;;;;;;;;5010541;28;20435;-71
2021/03/23 08:56:01;;;;;;;17.83;9.50;;;;;;;;;;5014374;28;20817;-70
2021/03/23 08:58:45;;;;;;;13.40;7.37;;;;;;;;;;5011478;28;20415;-70
2021/03/23 09:01:27;;;;;;;14.70;8.47;;;;;;;;;;5010266;28;20406;-70
2021/03/23 09:03:54;;;;;;;18.70;9.50;;;;;;;;;;5005287;28;20457;-70
2021/03/23 09:06:24;;;;;;;16.50;8.13;;;;;;;;;;5013905;28;20987;-71
2021/03/23 09:08:52;;;;;;;15.93;9.40;;;;;;;;;;5014341;28;20428;-70
2021/03/23 09:11:18;;;;;;;14.23;8.67;;;;;;;;;;5005541;28;20453;-70
2021/03/23 09:13:44;;;;;;;15.47;7.20;;;;;;;;;;5004198;28;20865;-70
2021/03/23 09:16:13;;;;;;;16.73;8.80;;;;;;;;;;5010128;28;20420;-70
2021/03/23 09:18:58;;;;;;;16.40;9.63;;;;;;;;;;4996624;28;20410;-71
2021/03/23 09:21:24;;;;;;;13.47;8.20;;;;;;;;;;5000654;28;20814;-71
2021/03/23 09:23:53;;;;;;;21.20;9.13;;;;;;;;;;5006755;28;20474;-72
2021/03/23 09:26:31;;;;;;;14.83;7.17;;;;;;;;;;5013274;28;20474;-71
2021/03/23 09:29:17;;;;;;;15.50;9.10;;;;;;;;;;5006754;28;20425;-71
2021/03/23 09:31:49;;;;;;;13.90;7.97;;;;;;;;;;5009966;28;20976;-71
2021/03/23 09:34:34;;;;;;;13.60;6.87;;;;;;;;;;5012498;28;20438;-70
2021/03/23 09:37:15;;;;;;;10.93;5.10;;;;;;;;;;5010247;28;20424;-70
2021/03/23 09:39:43;;;;;;;15.67;5.87;;;;;;;;;;5004979;28;20453;-70
2021/03/23 09:42:17;;;;;;;10.73;5.13;;;;;;;;;;5013137;28;20403;-70
2021/03/23 09:44:44;;;;;;;12.20;6.37;;;;;;;;;;5011016;28;20459;-69
2021/03/23 09:47:30;;;;;;;9.30;5.50;;;;;;;;;;5011735;28;20521;-71
2021/03/23 09:49:56;;;;;;;11.13;5.43;;;;;;;;;;5014004;28;20456;-71
2021/03/23 09:52:28;;;;;;;10.50;5.80;;;;;;;;;;5014902;28;20412;-69
2021/03/23 09:54:58;;;;;;;8.63;4.63;;;;;;;;;;5014059;28;20441;-70
2021/03/23 09:57:26;;;;;;;8.77;4.70;;;;;;;;;;5013811;28;20423;-70
2021/03/23 09:59:53;;;;;;;9.50;4.97;;;;;;;;;;5010391;28;20521;-70
2021/03/23 10:02:31;;;;;;;6.70;4.27;;;;;;;;;;5012514;28;20422;-70
2021/03/23 10:05:18;;;;;;;9.87;5.27;;;;;;;;;;5013178;28;20456;-70
2021/03/23 10:07:45;;;;;;;9.10;5.10;;;;;;;;;;5009365;28;20416;-70
2021/03/23 10:10:31;;;;;;;11.87;4.67;;;;;;;;;;5010625;28;20453;-70
2021/03/23 10:12:58;;;;;;;10.23;4.20;;;;;;;;;;5007440;28;20413;-71
2021/03/23 10:15:33;;;;;;;9.53;4.10;;;;;;;;;;5015552;28;20427;-70
2021/03/23 10:18:18;;;;;;;8.87;4.17;;;;;;;;;;5021184;28;20461;-70
2021/03/23 10:21:11;;;;;;;10.03;4.17;;;;;;;;;;5010747;28;20429;-71
2021/03/23 10:24:06;;;;;;;7.90;3.60;;;;;;;;;;5011418;28;20442;-71
2021/03/23 10:26:35;;;;;;;4.97;4.17;;;;;;;;;;4996580;28;20503;-70
2021/03/23 10:29:15;;;;;;;14.37;5.37;;;;;;;;;;5009474;28;20500;-70
2021/03/23 10:31:44;;;;;;;13.23;5.97;;;;;;;;;;5008565;28;20460;-71
2021/03/23 10:34:22;;;;;;;15.40;6.13;;;;;;;;;;5011323;28;20650;-70
2021/03/23 10:36:53;;;;;;;16.13;5.70;;;;;;;;;;5006900;28;20453;-70
2021/03/23 10:39:30;;;;;;;8.97;4.60;;;;;;;;;;5010405;28;20473;-72
2021/03/23 10:41:57;;;;;;;6.87;4.57;;;;;;;;;;5009029;28;20434;-70
2021/03/23 10:44:26;;;;;;;9.63;5.10;;;;;;;;;;5009552;28;20451;-70
2021/03/23 10:46:53;;;;;;;8.37;5.53;;;;;;;;;;5010238;28;20413;-71
2021/03/23 10:51:49;;;;;;;14.03;5.60;;;;;;;;;;5005645;28;20490;-71
2021/03/23 10:54:19;;;;;;;9.10;5.03;;;;;;;;;;5011970;28;20443;-70
2021/03/23 10:56:46;;;;;;;8.50;5.27;;;;;;;;;;5015142;28;20428;-69
2021/03/23 10:59:15;;;;;;;17.67;4.77;;;;;;;;;;5010578;28;20417;-71
2021/03/23 11:02:01;;;;;;;6.53;4.70;;;;;;;;;;5002502;28;20441;-72
2021/03/23 11:04:28;;;;;;;10.20;5.00;;;;;;;;;;5002040;28;20492;-71
2021/03/23 11:06:54;;;;;;;11.27;5.33;;;;;;;;;;5008462;28;20444;-72
2021/03/23 11:09:20;;;;;;;10.43;4.60;;;;;;;;;;5009730;28;20709;-71
2021/03/23 11:11:49;;;;;;;9.43;4.50;;;;;;;;;;5011767;28;20489;-71
2021/03/23 11:14:15;;;;;;;10.73;4.67;;;;;;;;;;5036056;23;21094;-82
2021/03/23 11:16:42;;;;;;;14.57;4.63;;;;;;;;;;5054255;28;20481;-82
2021/03/23 11:19:18;;;;;;;9.70;5.40;;;;;;;;;;5055681;28;20441;-84
2021/03/23 11:21:58;;;;;;;;;;;;;;;;;;;;;
2021/03/23 11:24:25;;;;;;;9.93;5.60;;;;;;;;;;5038826;28;20531;-83
2021/03/23 11:26:51;;;;;;;17.33;4.73;;;;;;;;;;5044630;28;20923;-83
2021/03/23 11:29:19;;;;;;;9.67;4.90;;;;;;;;;;5047930;28;20929;-83
2021/03/23 11:31:46;;;;;;;10.17;5.77;;;;;;;;;;5049216;28;20474;-81
2021/03/23 11:34:12;;;;;;;10.30;5.27;;;;;;;;;;5043997;28;20415;-82
2021/03/23 11:36:39;;;;;;;11.17;5.80;;;;;;;;;;5036052;28;20561;-82
2021/03/23 11:39:06;;;;;;;11.87;6.60;;;;;;;;;;5030435;28;20809;-83
2021/03/23 11:41:36;;;;;;;11.20;5.37;;;;;;;;;;5031051;28;20450;-85
2021/03/23 11:44:07;;;;;;;7.00;4.03;;;;;;;;;;5019989;28;20413;-85
2021/03/23 11:46:41;;;;;;;7.57;4.10;;;;;;;;;;5028860;28;20424;-84
2021/03/23 11:49:12;;;;;;;10.30;4.80;;;;;;;;;;5036334;28;20435;-84
2021/03/23 11:51:45;;;;;;;8.30;4.53;;;;;;;;;;5035297;28;20467;-85
2021/03/23 11:54:11;;;;;;;7.70;4.57;;;;;;;;;;5035259;28;20427;-84
2021/03/23 11:56:38;;;;;;;13.47;6.20;;;;;;;;;;5034639;28;20419;-84
2021/03/23 11:59:04;;;;;;;10.33;5.10;;;;;;;;;;5024845;28;20417;-83
2021/03/23 12:01:30;;;;;;;7.27;4.47;;;;;;;;;;5044898;28;20452;-81
2021/03/23 12:03:56;;;;;;;7.87;5.10;;;;;;;;;;5033753;28;20431;-82
2021/03/23 12:06:30;;;;;;;7.00;3.80;;;;;;;;;;5037609;28;20498;-84
2021/03/23 12:08:59;;;;;;;6.73;4.50;;;;;;;;;;5035512;28;20453;-84
2021/03/23 12:11:38;;;;;;;8.50;4.83;;;;;;;;;;5028897;28;20465;-82
2021/03/23 12:14:27;;;;;;;10.30;5.43;;;;;;;;;;5041855;28;20944;-84
2021/03/23 12:16:58;;;;;;;7.40;4.37;;;;;;;;;;5027413;28;20432;-84
2021/03/23 12:19:25;;;;;;;8.70;4.83;;;;;;;;;;5042474;28;20772;-84
2021/03/23 12:21:52;;;;;;;11.87;5.57;;;;;;;;;;5039389;28;20461;-83
2021/03/23 12:24:21;;;;;;;7.43;5.10;;;;;;;;;;5038410;28;20428;-84
2021/03/23 12:26:47;;;;;;;9.67;5.60;;;;;;;;;;5027946;28;20438;-81
2021/03/23 12:29:13;;;;;;;9.60;5.57;;;;;;;;;;5025907;28;20946;-84
2021/03/23 12:31:39;;;;;;;10.30;5.63;;;;;;;;;;5029194;28;20505;-85
2021/03/23 12:34:06;;;;;;;11.67;5.30;;;;;;;;;;5022637;28;20417;-83
2021/03/23 12:36:32;;;;;;;9.00;5.53;;;;;;;;;;5032711;28;20485;-83
2021/03/23 12:38:58;;;;;;;8.10;5.07;;;;;;;;;;5031003;28;20415;-81
2021/03/23 12:41:28;;;;;;;13.60;6.70;;;;;;;;;;5033396;28;20521;-83
2021/03/23 12:43:54;;;;;;;11.70;6.00;;;;;;;;;;5026794;28;20513;-82
2021/03/23 12:46:20;;;;;;;8.27;5.40;;;;;;;;;;5021287;28;20433;-84
2021/03/23 12:48:47;;;;;;;8.93;5.70;;;;;;;;;;5020153;28;20504;-84
2021/03/23 12:51:19;;;;;;;9.87;5.70;;;;;;;;;;5026171;28;20459;-83
2021/03/23 12:53:46;;;;;;;8.90;5.10;;;;;;;;;;5020590;28;20423;-83
2021/03/23 12:56:12;;;;;;;9.60;5.30;;;;;;;;;;5032632;28;20424;-83
2021/03/23 12:58:38;;;;;;;11.20;5.80;;;;;;;;;;5043172;28;20813;-83
2021/03/23 13:01:05;;;;;;;12.43;6.07;;;;;;;;;;5034088;28;20432;-83
2021/03/23 13:03:31;;;;;;;13.70;6.30;;;;;;;;;;5044623;28;20432;-81
2021/03/23 13:05:57;;;;;;;9.57;6.03;;;;;;;;;;5040116;28;20426;-84
2021/03/23 13:08:31;;;;;;;10.43;5.63;;;;;;;;;;5036004;28;20455;-83
2021/03/23 13:11:21;;;;;;;8.50;5.00;;;;;;;;;;5041691;28;20453;-82
2021/03/23 13:13:52;;;;;;;8.83;5.93;;;;;;;;;;5018329;28;20434;-83
2021/03/23 13:16:18;;;;;;;12.70;6.77;;;;;;;;;;5026695;28;20418;-81
2021/03/23 13:18:45;;;;;;;10.43;6.23;;;;;;;;;;5043217;28;20449;-82
2021/03/23 13:21:21;;;;;;;12.67;7.37;;;;;;;;;;5047039;28;20499;-82
2021/03/23 13:23:52;;;;;;;10.20;6.47;;;;;;;;;;5026650;28;20422;-84
2021/03/23 13:26:26;;;;;;;13.30;7.70;;;;;;;;;;5022339;28;20432;-84
2021/03/23 13:28:56;;;;;;;12.10;6.93;;;;;;;;;;5033402;28;20423;-84
2021/03/23 13:31:23;;;;;;;13.33;6.27;;;;;;;;;;5029116;28;20523;-81
2021/03/23 13:33:50;;;;;;;11.20;7.10;;;;;;;;;;5030360;28;20448;-79
2021/03/23 13:36:28;;;;;;;11.87;6.10;;;;;;;;;;5031086;28;20429;-80
2021/03/23 13:38:54;;;;;;;14.03;7.87;;;;;;;;;;5022514;28;20499;-82
2021/03/23 13:41:20;;;;;;;13.23;6.73;;;;;;;;;;5037637;28;20526;-82
2021/03/23 13:43:46;;;;;;;14.63;8.77;;;;;;;;;;5032338;28;20424;-81
2021/03/23 13:46:32;;;;;;;12.77;8.70;;;;;;;;;;5037262;28;20427;-80
2021/03/23 13:48:59;;;;;;;14.20;7.70;;;;;;;;;;5030324;28;20422;-82